Weston, WY

16:04 MDT le 25 octobre 2014 (GMT -0600)
Gillette-Campbell County | Change Station
CLOSE
Current Station
Aéroport
Location: Gillette,
Altitude: 4364 ft
Stations météo à proximité

Alt. 4364 ft 44.34 °N, 105.54 °W | Updated 11 minutes ago

Ciel dégagé
Ciel dégagé
72 ° F
Paraît 72 ° F
N
22
Vent Variable Vent de SE

Aujourd'hui
Haut(e) -- | Bas -- ° F
--% Risque de précip.
Hier
Haut(e) -- | Bas -- ° F
Precip. -- pouce
7:30 AM 6:01 PM
Lune montante, 4% visible
Pression 29.89 pouce
Visibilité 10.0 Miles terrestres
Nuages Ciel dégagé
Point de rosée 35 ° F
Humidité 26%
Précipitations 0.00 pouce
Profondeur de la couche neigeuse Non disponible.
UV 1 sur 12
Pollen 1.70 sur 12
Qualité de l'air Non disponible.
Flu Activity Sporadic
METAR KGCC 252153Z AUTO 13019KT 10SM CLR 22/02 A2994 RMK AO2 SLP122 T02220017

More Conditions Fewer Conditions

Pression 29.89 pouce
Visibilité 10.0 Miles terrestres
Nuages Ciel dégagé
Point de rosée 35 ° F
Humidité 26%
Précipitations 0.00 pouce
Profondeur de la couche neigeuse Non disponible.
UV 1 sur 12
Pollen 1.70 sur 12
Qualité de l'air Non disponible.
Flu Activity Sporadic
METAR KGCC 252153Z AUTO 13019KT 10SM CLR 22/02 A2994 RMK AO2 SLP122 T02220017

More Conditions Fewer Conditions

10-Day Weather Forecast

Almanac

Astronomie

Oct. 25, 2014 Lever Coucher
Temps réel 07:30 MDT 18:01 MDT
Crépuscule civil 07:00 MDT 18:31 MDT
Crépuscule nautique 06:26 MDT 19:05 MDT
Crépuscule astronomique 05:52 MDT 19:38 MDT
Lune 09:14 MDT 19:23 MDT
Durée de lumière visible 11h 31m
Longueur du jour
10h 31m
Tomorrow will be 2m 50s shorter.
Lune montante, 4% of the Moon is Illuminated
Aujourd'hui
Lune montante
Oct 30
Premier quartier
Nov 6
Pleine lune
Nov 14
Dernier quartier
Nov 22
Nouveau

Extrêmes aujourd'hui

State Highs State Lows

Community

WunderPhotos

Upload Photos

1,765,009 Photos téléchargées !

Nearby

Épaisseur de neige

Station Depth Altitude
Big Goose 0 in 7990 ft
Burgess Junction 0 in 7880 ft
Bone Springs Divide 0 in 9350 ft
Reno Hill 0 in 8500 ft
Windy Peak 0 in 7900 ft

Activité sismique

Ville Distance Mag. Time & Date
No recent earthquake activity has been reported nearby.
Minimum magnitude displayed is 2.5.

Températures des eaux côtières

Lieu Température
Aucun rapport de station

Stations météo à proximité